createdAt,value
2022-09-12T00:00:00.783Z,17.08
2022-09-12T00:00:33.165Z,18.42
2022-09-12T00:01:09.766Z,17.05
2022-09-12T00:01:42.119Z,17.13
2022-09-12T00:02:17.234Z,17.38
2022-09-12T00:02:53.069Z,17.58
2022-09-12T00:03:25.242Z,17.80
2022-09-12T00:04:02.262Z,17.60
2022-09-12T00:04:34.883Z,18.00
2022-09-12T00:05:08.161Z,17.23
2022-09-12T00:05:44.586Z,16.20
2022-09-12T00:06:23.122Z,17.85
2022-09-12T00:06:55.532Z,18.30
2022-09-12T00:07:27.654Z,17.63
2022-09-12T00:08:03.321Z,16.45
2022-09-12T00:08:35.563Z,18.35
2022-09-12T00:09:10.529Z,17.35
2022-09-12T00:09:45.537Z,16.55
2022-09-12T00:10:18.512Z,17.45
2022-09-12T00:10:53.259Z,17.92
2022-09-12T00:11:28.277Z,15.35
2022-09-12T00:12:00.386Z,17.30
2022-09-12T00:12:32.462Z,16.38
2022-09-12T00:13:07.285Z,17.85
2022-09-12T00:13:41.956Z,16.33
2022-09-12T00:14:18.932Z,17.33
2022-09-12T00:14:51.014Z,16.30
2022-09-12T00:15:23.110Z,17.77
2022-09-12T00:15:57.820Z,16.88
2022-09-12T00:16:32.396Z,16.55
2022-09-12T00:17:04.822Z,18.25
2022-09-12T00:17:40.886Z,17.13
2022-09-12T00:18:15.596Z,16.55
2022-09-12T00:18:50.709Z,16.55
2022-09-12T00:19:22.857Z,17.25
2022-09-12T00:19:55.951Z,16.52
2022-09-12T00:20:28.126Z,15.82
2022-09-12T00:21:06.980Z,17.65
2022-09-12T00:21:40.097Z,17.25
2022-09-12T00:22:12.195Z,16.30
2022-09-12T00:22:46.985Z,17.30
2022-09-12T00:23:19.294Z,16.15
2022-09-12T00:23:52.070Z,17.73
2022-09-12T00:24:26.755Z,16.38
2022-09-12T00:24:58.955Z,17.35
2022-09-12T00:25:31.372Z,16.73
2022-09-12T00:26:07.894Z,16.48
2022-09-12T00:26:42.772Z,16.40
2022-09-12T00:27:14.888Z,15.88
2022-09-12T00:27:47.005Z,17.02
2022-09-12T00:28:21.940Z,16.27
2022-09-12T00:28:54.521Z,16.75
2022-09-12T00:29:26.616Z,16.35
2022-09-12T00:30:01.274Z,16.85
2022-09-12T00:30:33.849Z,15.05
2022-09-12T00:31:08.339Z,16.60
2022-09-12T00:31:43.065Z,16.33
2022-09-12T00:32:15.185Z,15.45
2022-09-12T00:32:47.254Z,17.15
2022-09-12T00:33:22.019Z,16.98
2022-09-12T00:33:56.863Z,16.35
2022-09-12T00:34:29.013Z,16.27
2022-09-12T00:35:03.745Z,16.55
2022-09-12T00:35:40.806Z,16.52
2022-09-12T00:36:16.627Z,16.13
2022-09-12T00:36:51.542Z,15.43
2022-09-12T00:37:23.617Z,15.80
2022-09-12T00:37:55.730Z,16.23
2022-09-12T00:38:30.488Z,16.90
2022-09-12T00:39:02.766Z,16.48
2022-09-12T00:39:36.249Z,15.60
2022-09-12T00:40:11.621Z,17.05
2022-09-12T00:40:44.806Z,16.17
2022-09-12T00:41:24.947Z,15.65
2022-09-12T00:41:57.105Z,15.52
2022-09-12T00:42:29.399Z,15.30
2022-09-12T00:43:04.118Z,15.90
2022-09-12T00:43:38.756Z,15.52
2022-09-12T00:44:57.539Z,15.63
2022-09-12T00:45:30.732Z,15.73
2022-09-12T00:46:07.550Z,15.40
2022-09-12T00:46:47.069Z,15.70
2022-09-12T00:47:25.619Z,15.80
2022-09-12T00:48:02.290Z,15.52
2022-09-12T00:48:43.046Z,17.23
2022-09-12T00:49:26.128Z,17.50
2022-09-12T00:50:07.995Z,15.20
2022-09-12T00:50:40.329Z,15.13
2022-09-12T00:51:13.553Z,16.60
2022-09-12T00:51:54.410Z,15.25
2022-09-12T00:52:29.768Z,15.38
2022-09-12T00:53:07.489Z,15.50
2022-09-12T00:53:44.745Z,15.43
2022-09-12T00:54:22.586Z,14.73
2022-09-12T00:54:59.323Z,16.75
2022-09-12T00:55:39.507Z,16.35
2022-09-12T00:56:12.573Z,17.15
2022-09-12T00:56:51.244Z,15.93
2022-09-12T00:57:28.312Z,15.82
2022-09-12T00:58:06.589Z,16.02
2022-09-12T00:58:44.137Z,15.73
2022-09-12T00:59:23.078Z,15.23
2022-09-12T00:59:59.813Z,16.50
2022-09-12T01:00:32.459Z,15.18
2022-09-12T01:01:07.276Z,15.57
2022-09-12T01:01:42.271Z,16.20
2022-09-12T01:02:15.371Z,16.02
2022-09-12T01:02:53.670Z,16.02
2022-09-12T01:03:26.312Z,16.17
2022-09-12T01:03:58.814Z,16.10
2022-09-12T01:04:33.854Z,16.20
2022-09-12T01:05:07.934Z,15.57
2022-09-12T01:05:44.571Z,16.88
2022-09-12T01:06:24.634Z,16.02
2022-09-12T01:06:58.870Z,15.25
2022-09-12T01:07:31.611Z,16.63
2022-09-12T01:08:07.609Z,16.00
2022-09-12T01:08:43.280Z,16.67
2022-09-12T01:09:18.572Z,15.43
2022-09-12T01:09:53.529Z,16.42
2022-09-12T01:10:25.631Z,16.08
2022-09-12T01:10:58.174Z,14.20
2022-09-12T01:11:31.211Z,16.23
2022-09-12T01:12:09.885Z,15.85
2022-09-12T01:12:43.706Z,15.30
2022-09-12T01:13:16.303Z,16.40
2022-09-12T01:13:52.497Z,16.42
2022-09-12T01:14:24.885Z,15.55
2022-09-12T01:14:57.026Z,15.30
2022-09-12T01:15:29.172Z,15.07
2022-09-12T01:16:06.388Z,15.50
2022-09-12T01:16:38.870Z,15.00
2022-09-12T01:17:13.131Z,14.40
2022-09-12T01:18:02.393Z,15.57
2022-09-12T01:18:46.293Z,16.02
2022-09-12T01:19:44.354Z,15.90
2022-09-12T01:20:53.765Z,16.02
2022-09-12T01:21:37.549Z,14.32
2022-09-12T01:22:28.183Z,14.35
2022-09-12T01:23:21.078Z,14.10
2022-09-12T01:24:37.468Z,14.43
2022-09-12T01:25:21.334Z,13.77
2022-09-12T01:26:17.387Z,14.63
2022-09-12T01:27:23.862Z,14.10
2022-09-12T01:28:36.973Z,14.15
2022-09-12T01:29:33.641Z,12.98
2022-09-12T01:30:28.134Z,15.50
2022-09-12T01:31:06.100Z,15.10
2022-09-12T01:31:44.678Z,14.93
2022-09-12T01:32:25.485Z,14.60
2022-09-12T01:33:19.182Z,13.98
2022-09-12T01:34:04.852Z,15.00
2022-09-12T01:34:43.593Z,14.15
2022-09-12T01:35:24.188Z,13.57
2022-09-12T01:36:20.908Z,15.02
2022-09-12T01:37:04.131Z,14.73
2022-09-12T01:37:43.417Z,14.95
2022-09-12T01:38:27.632Z,14.32
2022-09-12T01:39:03.942Z,13.63
2022-09-12T01:39:44.150Z,13.48
2022-09-12T01:40:25.370Z,13.43
2022-09-12T01:41:08.465Z,13.18
2022-09-12T01:41:50.068Z,15.00
2022-09-12T01:42:34.579Z,14.60
2022-09-12T01:43:20.733Z,14.90
2022-09-12T01:44:03.711Z,14.52
2022-09-12T01:44:42.415Z,14.75
2022-09-12T01:45:29.329Z,14.93
2022-09-12T01:46:08.701Z,14.93
2022-09-12T01:46:46.411Z,14.55
2022-09-12T01:47:26.778Z,13.80
2022-09-12T01:48:37.209Z,13.63
2022-09-12T01:49:18.791Z,13.70
2022-09-12T01:49:58.251Z,13.90
2022-09-12T01:50:36.929Z,13.55
2022-09-12T01:51:14.876Z,10.93
2022-09-12T01:51:57.065Z,11.57
2022-09-12T01:52:39.638Z,12.45
2022-09-12T01:53:18.966Z,12.73
2022-09-12T01:53:55.762Z,12.57
2022-09-12T01:54:38.507Z,13.35
2022-09-12T01:55:17.028Z,11.98
2022-09-12T01:55:56.076Z,11.85
2022-09-12T01:56:33.890Z,12.20
2022-09-12T01:57:13.183Z,9.90
2022-09-12T01:57:49.676Z,11.48
2022-09-12T01:58:29.437Z,10.52
2022-09-12T01:59:06.104Z,8.30
2022-09-12T01:59:43.995Z,7.40
2022-09-12T02:00:22.268Z,7.35
2022-09-12T02:01:03.589Z,7.60
2022-09-12T02:01:39.837Z,7.63
2022-09-12T02:02:17.795Z,7.90
2022-09-12T02:02:56.616Z,7.88
2022-09-12T02:03:33.675Z,7.97
2022-09-12T02:04:14.493Z,6.70
2022-09-12T02:04:52.821Z,7.38
2022-09-12T02:05:31.485Z,6.97
2022-09-12T02:06:11.327Z,6.28
2022-09-12T02:06:48.515Z,6.30
2022-09-12T02:07:22.895Z,6.32
2022-09-12T02:08:04.323Z,6.35
2022-09-12T02:08:43.294Z,5.28
2022-09-12T02:09:22.921Z,6.15
2022-09-12T02:10:02.917Z,5.50
2022-09-12T02:10:41.931Z,4.93
2022-09-12T02:11:14.158Z,6.07
2022-09-12T02:11:51.606Z,5.63
2022-09-12T02:12:31.890Z,5.38
2022-09-12T02:13:09.786Z,4.55
2022-09-12T02:13:46.938Z,5.15
2022-09-12T02:14:24.389Z,4.47
2022-09-12T02:15:02.174Z,5.00
2022-09-12T02:15:43.513Z,4.28
2022-09-12T02:16:22.479Z,4.75
2022-09-12T02:16:58.976Z,4.50
2022-09-12T02:17:35.331Z,5.00
2022-09-12T02:18:08.593Z,5.32
2022-09-12T02:18:45.149Z,5.25
2022-09-12T02:19:23.873Z,4.97
2022-09-12T02:19:59.492Z,5.30
2022-09-12T02:20:47.935Z,4.72
2022-09-12T02:21:25.176Z,5.05
2022-09-12T02:22:00.560Z,4.60
2022-09-12T02:22:36.571Z,4.78
2022-09-12T02:23:15.654Z,4.55
2022-09-12T02:23:54.316Z,4.22
2022-09-12T02:24:31.763Z,6.90
2022-09-12T02:25:11.638Z,5.28
2022-09-12T02:25:47.019Z,5.40
2022-09-12T02:26:26.068Z,4.63
2022-09-12T02:27:06.230Z,4.75
2022-09-12T02:27:43.242Z,4.72
2022-09-12T02:28:19.979Z,4.55
2022-09-12T02:28:54.676Z,5.65
2022-09-12T02:29:27.145Z,5.60
2022-09-12T02:30:00.038Z,4.43
2022-09-12T02:30:44.985Z,6.22
2022-09-12T02:31:23.874Z,4.93
2022-09-12T02:31:59.119Z,4.88
2022-09-12T02:32:39.384Z,4.22
2022-09-12T02:33:20.674Z,5.03
2022-09-12T02:34:09.095Z,5.00
2022-09-12T02:34:49.826Z,4.90
2022-09-12T02:35:33.016Z,4.20
2022-09-12T02:36:24.037Z,5.35
2022-09-12T02:37:03.920Z,4.30
2022-09-12T02:37:52.870Z,4.65
2022-09-12T02:38:30.235Z,4.88
2022-09-12T02:39:02.408Z,5.20
2022-09-12T02:39:40.200Z,4.40
2022-09-12T02:40:15.021Z,4.85
2022-09-12T02:40:47.331Z,4.95
2022-09-12T02:41:24.323Z,4.63
2022-09-12T02:42:01.096Z,4.85
2022-09-12T02:42:33.235Z,5.00
2022-09-12T02:43:09.146Z,4.15
2022-09-12T02:43:41.412Z,4.43
2022-09-12T02:44:13.870Z,4.35
2022-09-12T02:44:48.715Z,4.65
2022-09-12T02:45:22.930Z,6.82
2022-09-12T02:45:57.786Z,4.15
2022-09-12T02:46:39.526Z,5.28
2022-09-12T02:47:19.266Z,4.95
2022-09-12T02:47:55.320Z,4.10
2022-09-12T02:48:32.042Z,6.68
2022-09-12T02:49:04.318Z,5.43
2022-09-12T02:49:36.452Z,6.75
2022-09-12T02:50:12.215Z,4.95
2022-09-12T02:50:45.063Z,6.30
2022-09-12T02:51:22.938Z,6.22
2022-09-12T02:51:58.783Z,4.93
2022-09-12T02:52:31.708Z,4.90
2022-09-12T02:53:07.615Z,5.20
2022-09-12T02:53:43.326Z,5.05
2022-09-12T02:54:18.071Z,4.00
2022-09-12T02:54:51.909Z,4.47
2022-09-12T02:55:26.883Z,4.22
2022-09-12T02:55:59.118Z,4.60
2022-09-12T02:56:31.490Z,4.65
2022-09-12T02:57:04.057Z,3.85
2022-09-12T02:57:38.811Z,3.17
2022-09-12T02:58:15.191Z,4.65
2022-09-12T02:58:48.903Z,4.30
2022-09-12T02:59:26.273Z,4.47
2022-09-12T03:00:01.099Z,4.53
2022-09-12T03:00:38.059Z,4.00
2022-09-12T03:01:23.942Z,4.55
2022-09-12T03:02:12.526Z,4.63
2022-09-12T03:03:25.814Z,3.90
2022-09-12T03:04:17.527Z,5.25
2022-09-12T03:05:13.507Z,4.18
2022-09-12T03:05:54.353Z,4.68
2022-09-12T03:06:38.133Z,4.43
2022-09-12T03:07:16.030Z,4.40
2022-09-12T03:08:20.990Z,4.90
2022-09-12T03:09:06.849Z,4.47
2022-09-12T03:09:47.389Z,4.28
2022-09-12T03:10:32.864Z,5.15
2022-09-12T03:11:29.959Z,4.32
2022-09-12T03:12:16.903Z,5.00
2022-09-12T03:12:55.646Z,3.90
2022-09-12T03:13:39.135Z,4.65
2022-09-12T03:14:34.015Z,4.60
2022-09-12T03:15:18.075Z,5.22
2022-09-12T03:16:06.651Z,4.82
2022-09-12T03:16:51.349Z,3.85
2022-09-12T03:17:30.313Z,4.80
2022-09-12T03:18:14.954Z,4.18
2022-09-12T03:18:58.203Z,4.75
2022-09-12T03:19:45.982Z,4.38
2022-09-12T03:20:24.881Z,5.00
2022-09-12T03:21:05.798Z,5.43
2022-09-12T03:21:45.908Z,3.83
2022-09-12T03:22:23.839Z,4.38
2022-09-12T03:23:02.120Z,5.10
2022-09-12T03:23:42.914Z,4.30
2022-09-12T03:24:19.750Z,3.88
2022-09-12T03:25:02.810Z,3.88
2022-09-12T03:25:40.133Z,4.20
2022-09-12T03:26:17.153Z,4.38
2022-09-12T03:26:58.898Z,3.83
2022-09-12T03:27:35.120Z,5.20
2022-09-12T03:28:10.342Z,4.18
2022-09-12T03:28:46.703Z,4.00
2022-09-12T03:29:20.372Z,5.95
2022-09-12T03:29:54.006Z,4.15
2022-09-12T03:30:29.129Z,4.35
2022-09-12T03:31:01.350Z,4.40
2022-09-12T03:31:33.835Z,5.05
2022-09-12T03:32:11.196Z,3.75
2022-09-12T03:32:45.494Z,4.60
2022-09-12T03:33:19.440Z,3.55
2022-09-12T03:33:54.202Z,4.20
2022-09-12T03:34:27.769Z,4.70
2022-09-12T03:34:59.940Z,4.35
2022-09-12T03:35:34.652Z,4.65
2022-09-12T03:36:10.080Z,4.65
2022-09-12T03:36:42.191Z,6.32
2022-09-12T03:37:14.330Z,6.07
2022-09-12T03:37:50.412Z,4.97
2022-09-12T03:38:22.560Z,5.50
2022-09-12T03:38:55.005Z,6.03
2022-09-12T03:39:29.817Z,5.10
2022-09-12T03:40:02.432Z,5.15
2022-09-12T03:40:34.800Z,6.07
2022-09-12T03:41:09.495Z,5.22
2022-09-12T03:41:41.664Z,5.25
2022-09-12T03:42:13.754Z,4.13
2022-09-12T03:42:48.428Z,4.82
2022-09-12T03:43:20.550Z,4.88
2022-09-12T03:43:52.686Z,4.72
2022-09-12T03:44:27.504Z,5.25
2022-09-12T03:44:59.609Z,4.35
2022-09-12T03:45:31.781Z,5.03
2022-09-12T03:46:06.617Z,4.82
2022-09-12T03:46:38.727Z,5.25
2022-09-12T03:47:13.406Z,5.30
2022-09-12T03:47:48.130Z,5.90
2022-09-12T03:48:20.248Z,4.32
2022-09-12T03:48:52.378Z,5.72
2022-09-12T03:49:27.079Z,5.88
2022-09-12T03:49:59.209Z,6.18
2022-09-12T03:50:31.336Z,4.65
2022-09-12T03:51:06.881Z,5.57
2022-09-12T03:51:39.310Z,4.45
2022-09-12T03:52:11.373Z,4.25
2022-09-12T03:52:46.058Z,3.92
2022-09-12T03:53:18.310Z,4.47
2022-09-12T03:53:50.412Z,4.00
2022-09-12T03:54:25.194Z,3.70
2022-09-12T03:54:57.303Z,5.05
2022-09-12T03:55:29.635Z,4.85
2022-09-12T03:56:10.075Z,5.53
2022-09-12T03:57:14.220Z,4.32
2022-09-12T03:57:49.131Z,4.40
2022-09-12T03:58:21.471Z,5.13
2022-09-12T03:58:53.564Z,4.45
2022-09-12T03:59:28.218Z,5.47
2022-09-12T04:00:02.074Z,4.65
2022-09-12T04:00:44.642Z,5.40
2022-09-12T04:01:21.560Z,3.83
2022-09-12T04:01:53.683Z,4.55
2022-09-12T04:02:28.429Z,4.78
2022-09-12T04:03:03.275Z,3.08
2022-09-12T04:03:35.413Z,4.05
2022-09-12T04:04:07.488Z,3.55
2022-09-12T04:04:43.829Z,2.78
2022-09-12T04:05:16.302Z,2.00
2022-09-12T04:05:48.673Z,2.42
2022-09-12T04:06:25.569Z,4.47
2022-09-12T04:06:57.745Z,2.50
2022-09-12T04:07:30.253Z,3.55
2022-09-12T04:08:05.513Z,2.45
2022-09-12T04:08:38.211Z,3.53
2022-09-12T04:09:10.298Z,2.63
2022-09-12T04:09:45.013Z,2.88
2022-09-12T04:10:17.370Z,2.15
2022-09-12T04:10:49.433Z,1.58
2022-09-12T04:11:25.068Z,2.15
2022-09-12T04:11:57.188Z,4.18
2022-09-12T04:12:29.788Z,3.22
2022-09-12T04:13:04.823Z,2.38
2022-09-12T04:13:37.820Z,3.17
2022-09-12T04:14:09.942Z,3.40
2022-09-12T04:14:44.839Z,1.58
2022-09-12T04:15:17.313Z,4.53
2022-09-12T04:15:57.515Z,4.18
2022-09-12T04:16:32.450Z,2.20
2022-09-12T04:17:04.850Z,2.65
2022-09-12T04:17:39.631Z,1.85
2022-09-12T04:18:14.283Z,2.40
2022-09-12T04:18:47.034Z,2.88
2022-09-12T04:19:19.197Z,3.95
2022-09-12T04:19:53.869Z,3.03
2022-09-12T04:20:26.065Z,2.30
2022-09-12T04:20:58.524Z,3.35
2022-09-12T04:21:33.913Z,3.10
2022-09-12T04:22:06.136Z,2.22
2022-09-12T04:22:38.219Z,1.88
2022-09-12T04:23:12.870Z,3.83
2022-09-12T04:23:45.089Z,3.08
2022-09-12T04:24:17.393Z,2.63
2022-09-12T04:24:52.176Z,1.85
2022-09-12T04:25:24.312Z,2.10
2022-09-12T04:25:57.401Z,6.15
2022-09-12T04:26:32.231Z,3.22
2022-09-12T04:27:07.737Z,2.38
2022-09-12T04:27:40.073Z,3.20
2022-09-12T04:28:14.747Z,3.53
2022-09-12T04:28:47.885Z,3.38
2022-09-12T04:29:22.859Z,3.20
2022-09-12T04:29:56.311Z,3.13
2022-09-12T04:30:28.589Z,3.83
2022-09-12T04:31:06.169Z,4.28
2022-09-12T04:31:39.518Z,3.55
2022-09-12T04:32:11.810Z,2.95
2022-09-12T04:32:49.123Z,4.10
2022-09-12T04:33:21.398Z,4.38
2022-09-12T04:33:58.010Z,6.15
2022-09-12T04:34:34.258Z,4.03
2022-09-12T04:35:06.835Z,4.15
2022-09-12T04:35:38.967Z,3.55
2022-09-12T04:36:17.164Z,3.53
2022-09-12T04:36:49.398Z,4.93
2022-09-12T04:37:22.315Z,2.97
2022-09-12T04:37:57.195Z,3.63
2022-09-12T04:38:29.315Z,4.00
2022-09-12T04:39:02.565Z,3.60
2022-09-12T04:39:37.413Z,2.28
2022-09-12T04:40:10.258Z,3.65
2022-09-12T04:40:42.397Z,5.20
2022-09-12T04:41:18.772Z,5.65
2022-09-12T04:41:51.762Z,3.78
2022-09-12T04:42:26.458Z,3.88
2022-09-12T04:42:58.552Z,2.58
2022-09-12T04:43:30.629Z,3.60
2022-09-12T04:44:07.525Z,2.80
2022-09-12T04:44:39.669Z,3.70
2022-09-12T04:45:13.116Z,3.85
2022-09-12T04:45:47.813Z,3.53
2022-09-12T04:46:20.470Z,5.13
2022-09-12T04:46:52.871Z,4.50
2022-09-12T04:47:27.677Z,3.60
2022-09-12T04:48:02.726Z,3.13
2022-09-12T04:48:35.081Z,4.75
2022-09-12T04:49:10.142Z,1.90
2022-09-12T04:49:42.226Z,4.18
2022-09-12T04:50:15.049Z,2.70
2022-09-12T04:50:49.884Z,2.55
2022-09-12T04:51:26.062Z,2.90
2022-09-12T04:51:58.190Z,3.17
2022-09-12T04:52:32.839Z,4.85
2022-09-12T04:53:05.103Z,2.55
2022-09-12T04:53:39.217Z,3.90
2022-09-12T04:54:15.922Z,2.53
2022-09-12T04:54:48.446Z,4.10
2022-09-12T04:55:21.027Z,2.85
2022-09-12T04:55:55.683Z,2.53
2022-09-12T04:56:29.181Z,2.40
2022-09-12T04:57:01.418Z,3.00
2022-09-12T04:57:36.103Z,2.10
2022-09-12T04:58:08.226Z,4.07
2022-09-12T04:58:40.531Z,5.82
2022-09-12T04:59:16.267Z,2.38
2022-09-12T04:59:48.519Z,2.47
2022-09-12T05:00:23.363Z,4.00
2022-09-12T05:00:55.457Z,2.83
2022-09-12T05:01:29.881Z,2.15
2022-09-12T05:02:04.856Z,2.92
2022-09-12T05:02:37.032Z,2.65
2022-09-12T05:03:11.747Z,4.45
2022-09-12T05:03:47.234Z,2.28
2022-09-12T05:04:19.703Z,3.33
2022-09-12T05:04:52.840Z,4.35
2022-09-12T05:05:27.606Z,2.88
2022-09-12T05:06:00.215Z,3.15
2022-09-12T05:06:34.679Z,3.05
2022-09-12T05:07:09.340Z,3.92
2022-09-12T05:07:41.460Z,6.50
2022-09-12T05:08:13.531Z,4.65
2022-09-12T05:08:46.565Z,3.75
2022-09-12T05:09:21.307Z,3.63
2022-09-12T05:09:53.459Z,3.35
2022-09-12T05:10:25.627Z,3.28
2022-09-12T05:11:01.877Z,3.45
2022-09-12T05:12:03.328Z,4.55
2022-09-12T05:12:31.248Z,3.15
2022-09-12T05:13:05.983Z,3.10
2022-09-12T05:13:38.953Z,4.47
2022-09-12T05:14:11.221Z,5.47
2022-09-12T05:14:45.883Z,6.47
2022-09-12T05:15:18.252Z,4.45
2022-09-12T05:15:56.559Z,3.55
2022-09-12T05:16:32.893Z,4.35
2022-09-12T05:17:06.187Z,2.53
2022-09-12T05:17:40.934Z,3.42
2022-09-12T05:18:15.607Z,3.90
2022-09-12T05:18:49.118Z,2.63
2022-09-12T05:19:23.791Z,4.25
2022-09-12T05:19:55.952Z,2.53
2022-09-12T05:20:28.128Z,4.28
2022-09-12T05:21:03.271Z,3.83
2022-09-12T05:21:35.432Z,3.55
2022-09-12T05:22:10.099Z,3.40
2022-09-12T05:22:42.251Z,3.95
2022-09-12T05:23:14.333Z,3.97
2022-09-12T05:23:50.516Z,5.38
2022-09-12T05:24:22.638Z,4.55
2022-09-12T05:24:57.318Z,6.75
2022-09-12T05:25:29.437Z,8.45
2022-09-12T05:26:03.193Z,5.78
2022-09-12T05:26:37.866Z,3.78
2022-09-12T05:27:10.216Z,3.60
2022-09-12T05:27:48.627Z,3.53
2022-09-12T05:28:23.004Z,3.45
2022-09-12T05:28:55.729Z,7.72
2022-09-12T05:29:30.403Z,6.18
2022-09-12T05:30:02.650Z,5.90
2022-09-12T05:30:34.805Z,6.55
2022-09-12T05:31:11.985Z,5.35
2022-09-12T05:31:44.098Z,3.67
2022-09-12T05:32:18.825Z,10.23
2022-09-12T05:32:51.011Z,5.10
2022-09-12T05:33:25.710Z,6.13
2022-09-12T05:33:57.831Z,3.70
2022-09-12T05:34:32.494Z,5.80
2022-09-12T05:35:05.295Z,4.28
2022-09-12T05:35:38.204Z,5.72
2022-09-12T05:36:15.139Z,4.05
2022-09-12T05:36:47.275Z,4.38
2022-09-12T05:37:23.235Z,8.35
2022-09-12T05:37:55.320Z,5.63
2022-09-12T05:38:29.136Z,5.53
2022-09-12T05:39:04.713Z,3.33
2022-09-12T05:39:36.785Z,3.67
2022-09-12T05:40:10.256Z,7.95
2022-09-12T05:40:45.003Z,5.35
2022-09-12T05:41:23.002Z,9.18
2022-09-12T05:41:56.876Z,7.25
2022-09-12T05:42:33.118Z,7.72
2022-09-12T05:43:05.198Z,4.07
2022-09-12T05:43:38.923Z,5.15
2022-09-12T05:44:15.503Z,4.03
2022-09-12T05:44:47.635Z,4.50
2022-09-12T05:45:19.717Z,5.72
2022-09-12T05:45:54.487Z,5.82
2022-09-12T05:46:28.916Z,4.15
2022-09-12T05:47:03.601Z,8.93
2022-09-12T05:47:35.742Z,6.38
2022-09-12T05:48:07.922Z,5.35
2022-09-12T05:48:47.130Z,5.30
2022-09-12T05:49:19.315Z,3.75
2022-09-12T05:49:52.630Z,4.03
2022-09-12T05:50:27.382Z,5.00
2022-09-12T05:51:01.646Z,4.78
2022-09-12T05:51:35.861Z,2.85
2022-09-12T05:52:10.583Z,3.63
2022-09-12T05:52:42.746Z,4.07
2022-09-12T05:53:14.874Z,6.57
2022-09-12T05:53:52.789Z,4.18
2022-09-12T05:54:28.317Z,2.88
2022-09-12T05:55:03.046Z,4.22
2022-09-12T05:55:37.778Z,3.90
2022-09-12T05:56:11.669Z,5.95
2022-09-12T05:56:47.248Z,4.63
2022-09-12T05:57:19.405Z,4.22
2022-09-12T05:57:54.328Z,4.47
2022-09-12T05:58:26.546Z,3.45
2022-09-12T05:59:01.106Z,5.03
2022-09-12T05:59:35.788Z,3.10
2022-09-12T06:00:09.905Z,4.03
2022-09-12T06:00:44.083Z,14.63
2022-09-12T06:01:20.492Z,5.20
2022-09-12T06:01:52.914Z,3.42
2022-09-12T06:02:27.865Z,4.35
2022-09-12T06:02:59.997Z,4.65
2022-09-12T06:03:32.144Z,4.13
2022-09-12T06:04:07.415Z,4.03
2022-09-12T06:04:43.779Z,5.30
2022-09-12T06:05:16.076Z,2.58
2022-09-12T06:05:50.672Z,3.60
2022-09-12T06:06:27.856Z,4.75
2022-09-12T06:06:59.950Z,3.90
2022-09-12T06:07:35.840Z,4.88
2022-09-12T06:08:07.906Z,3.92
2022-09-12T06:08:41.299Z,5.15
2022-09-12T06:09:17.265Z,3.90
2022-09-12T06:09:49.351Z,4.53
2022-09-12T06:10:23.163Z,5.38
2022-09-12T06:11:02.558Z,4.10
2022-09-12T06:11:37.410Z,4.78
2022-09-12T06:12:12.119Z,6.68
2022-09-12T06:12:44.190Z,3.05
2022-09-12T06:13:16.343Z,5.57
2022-09-12T06:13:51.227Z,4.00
2022-09-12T06:14:23.376Z,2.92
2022-09-12T06:14:55.461Z,3.00
2022-09-12T06:15:30.127Z,2.75
2022-09-12T06:16:06.355Z,3.22
2022-09-12T06:16:39.340Z,3.22
2022-09-12T06:17:14.409Z,3.17
2022-09-12T06:17:51.355Z,3.83
2022-09-12T06:18:23.689Z,4.05
2022-09-12T06:18:59.648Z,3.60
2022-09-12T06:19:34.546Z,4.50
2022-09-12T06:20:10.603Z,2.97
2022-09-12T06:20:42.705Z,3.75
2022-09-12T06:21:14.855Z,2.45
2022-09-12T06:21:50.337Z,3.72
2022-09-12T06:22:22.563Z,4.07
2022-09-12T06:22:54.670Z,3.28
2022-09-12T06:23:29.695Z,3.97
2022-09-12T06:24:02.568Z,4.38
2022-09-12T06:24:37.311Z,4.38
2022-09-12T06:25:09.496Z,4.18
2022-09-12T06:25:47.240Z,3.60
2022-09-12T06:26:23.647Z,3.67
2022-09-12T06:26:56.028Z,2.85
2022-09-12T06:27:28.114Z,3.60
2022-09-12T06:28:02.955Z,4.03
2022-09-12T06:28:37.027Z,4.95
2022-09-12T06:29:11.569Z,3.53
2022-09-12T06:29:46.282Z,3.55
2022-09-12T06:30:21.247Z,3.40
2022-09-12T06:31:02.188Z,4.22
2022-09-12T06:31:39.122Z,5.28
2022-09-12T06:32:11.767Z,7.82
2022-09-12T06:32:46.418Z,5.60
2022-09-12T06:33:18.802Z,4.13
2022-09-12T06:33:52.499Z,2.45
2022-09-12T06:34:27.627Z,2.70
2022-09-12T06:35:02.594Z,4.63
2022-09-12T06:35:36.537Z,4.78
2022-09-12T06:36:14.025Z,4.10
2022-09-12T06:36:48.013Z,4.15
2022-09-12T06:37:22.693Z,3.25
2022-09-12T06:37:55.031Z,3.55
2022-09-12T06:38:27.222Z,3.10
2022-09-12T06:39:04.434Z,2.72
2022-09-12T06:39:38.572Z,3.78
2022-09-12T06:40:12.544Z,3.58
2022-09-12T06:40:47.430Z,2.92
2022-09-12T06:41:19.550Z,3.65
2022-09-12T06:41:52.430Z,3.13
2022-09-12T06:42:38.652Z,3.15
2022-09-12T06:43:11.780Z,3.05
2022-09-12T06:43:43.929Z,3.22
2022-09-12T06:44:20.542Z,2.95
2022-09-12T06:44:52.678Z,3.20
2022-09-12T06:45:26.164Z,2.85
2022-09-12T06:46:00.977Z,4.20
2022-09-12T06:46:33.513Z,4.53
2022-09-12T06:47:08.601Z,4.05
2022-09-12T06:47:40.670Z,4.05
2022-09-12T06:48:12.753Z,5.45
2022-09-12T06:48:47.479Z,3.85
2022-09-12T06:49:19.607Z,3.13
2022-09-12T06:49:51.682Z,5.43
2022-09-12T06:50:29.111Z,5.15
2022-09-12T06:51:02.457Z,3.85
2022-09-12T06:51:36.362Z,2.65
2022-09-12T06:52:11.115Z,4.53
2022-09-12T06:52:44.525Z,3.45
2022-09-12T06:53:16.629Z,6.03
2022-09-12T06:53:52.443Z,9.48
2022-09-12T06:54:26.532Z,8.30
2022-09-12T06:55:01.186Z,9.43
2022-09-12T06:55:33.972Z,3.40
2022-09-12T06:56:09.383Z,5.30
2022-09-12T06:56:44.375Z,4.35
2022-09-12T06:57:16.517Z,4.05
2022-09-12T06:57:48.578Z,3.85
2022-09-12T06:58:23.235Z,3.42
2022-09-12T06:58:57.292Z,3.47
2022-09-12T06:59:32.105Z,3.17
2022-09-12T07:00:05.736Z,2.47
2022-09-12T07:00:37.847Z,3.85
2022-09-12T07:01:15.535Z,2.83
2022-09-12T07:01:47.964Z,3.95
2022-09-12T07:02:20.186Z,2.88
2022-09-12T07:02:58.253Z,4.28
2022-09-12T07:03:31.108Z,3.83
2022-09-12T07:04:06.897Z,4.78
2022-09-12T07:04:39.001Z,4.20
2022-09-12T07:05:11.581Z,4.20
2022-09-12T07:05:49.276Z,4.47
2022-09-12T07:06:24.253Z,3.45
2022-09-12T07:06:56.483Z,4.05
2022-09-12T07:07:34.395Z,5.10
2022-09-12T07:08:06.661Z,2.58
2022-09-12T07:08:39.743Z,3.83
2022-09-12T07:09:16.557Z,4.93
2022-09-12T07:09:49.548Z,5.53
2022-09-12T07:10:22.658Z,5.05
2022-09-12T07:10:58.927Z,5.00
2022-09-12T07:11:33.598Z,3.88
2022-09-12T07:12:09.156Z,4.85
2022-09-12T07:12:41.248Z,4.95
2022-09-12T07:13:14.060Z,3.53
2022-09-12T07:13:50.754Z,2.40
2022-09-12T07:14:23.258Z,2.55
2022-09-12T07:14:55.370Z,4.80
2022-09-12T07:15:30.316Z,4.80
2022-09-12T07:16:02.790Z,4.65
2022-09-12T07:16:38.344Z,3.35
2022-09-12T07:17:10.530Z,5.35
2022-09-12T07:17:42.680Z,4.00
2022-09-12T07:18:17.561Z,3.35
2022-09-12T07:18:51.847Z,3.63
2022-09-12T07:19:27.224Z,4.32
2022-09-12T07:19:59.353Z,4.88
2022-09-12T07:20:33.227Z,5.05
2022-09-12T07:21:11.418Z,4.55
2022-09-12T07:21:46.089Z,2.55
2022-09-12T07:22:18.204Z,4.30
2022-09-12T07:22:51.036Z,3.47
2022-09-12T07:23:25.742Z,4.43
2022-09-12T07:23:58.320Z,4.45
2022-09-12T07:24:33.005Z,4.05
2022-09-12T07:25:06.041Z,3.92
2022-09-12T07:25:38.128Z,3.20
2022-09-12T07:26:14.226Z,3.90
2022-09-12T07:26:46.322Z,4.70
2022-09-12T07:27:18.471Z,3.53
2022-09-12T07:27:53.188Z,5.03
2022-09-12T07:28:26.171Z,3.70
2022-09-12T07:29:13.153Z,4.95
2022-09-12T07:29:54.075Z,4.18
2022-09-12T07:30:26.727Z,3.95
2022-09-12T07:31:05.445Z,4.00
2022-09-12T07:31:40.146Z,4.97
2022-09-12T07:32:12.260Z,1.90
2022-09-12T07:32:46.946Z,3.28
2022-09-12T07:33:19.039Z,2.65
2022-09-12T07:33:54.657Z,3.92
2022-09-12T07:34:29.771Z,3.15
2022-09-12T07:35:01.863Z,3.05
2022-09-12T07:35:34.470Z,1.95
2022-09-12T07:36:14.894Z,4.07
2022-09-12T07:37:21.464Z,3.35
2022-09-12T07:37:53.591Z,3.95
2022-09-12T07:38:25.718Z,4.53
2022-09-12T07:39:01.729Z,2.72
2022-09-12T07:39:33.817Z,4.80
2022-09-12T07:40:07.104Z,4.47
2022-09-12T07:40:41.816Z,3.90
2022-09-12T07:41:14.996Z,5.32
2022-09-12T07:41:47.176Z,4.63
2022-09-12T07:42:21.886Z,3.25
2022-09-12T07:42:54.041Z,4.35
2022-09-12T07:43:26.145Z,4.47
2022-09-12T07:44:02.353Z,4.28
2022-09-12T07:44:34.619Z,3.65
2022-09-12T07:45:10.466Z,3.00
2022-09-12T07:45:43.672Z,3.13
2022-09-12T07:46:16.794Z,4.15
2022-09-12T07:46:52.529Z,5.25
2022-09-12T07:47:24.983Z,3.28
2022-09-12T07:47:57.431Z,3.55
2022-09-12T07:48:32.261Z,3.78
2022-09-12T07:49:04.513Z,3.10
2022-09-12T07:49:39.177Z,3.10
2022-09-12T07:50:11.585Z,2.83
2022-09-12T07:50:45.212Z,2.30
2022-09-12T07:51:23.421Z,3.28
2022-09-12T07:51:55.487Z,3.00
2022-09-12T07:52:27.659Z,2.22
2022-09-12T07:53:03.308Z,2.90
2022-09-12T07:53:37.389Z,3.10
2022-09-12T07:54:10.100Z,3.00
2022-09-12T07:54:44.876Z,2.65
2022-09-12T07:55:17.355Z,2.28